sensor_id;sensor_type;location;lat;lon;timestamp;temperature;humidity
71177;DHT22;58877;51.992;4.504;2022-12-29T00:00:30;11.82;84.58
71177;DHT22;58877;51.992;4.504;2022-12-29T00:02:55;11.82;84.41
71177;DHT22;58877;51.992;4.504;2022-12-29T00:05:21;11.80;84.50
71177;DHT22;58877;51.992;4.504;2022-12-29T00:07:47;11.87;84.25
71177;DHT22;58877;51.992;4.504;2022-12-29T00:10:12;11.89;84.06
71177;DHT22;58877;51.992;4.504;2022-12-29T00:12:38;11.87;83.96
71177;DHT22;58877;51.992;4.504;2022-12-29T00:15:22;11.93;83.63
71177;DHT22;58877;51.992;4.504;2022-12-29T00:18:03;11.96;83.65
71177;DHT22;58877;51.992;4.504;2022-12-29T00:20:29;11.99;83.31
71177;DHT22;58877;51.992;4.504;2022-12-29T00:23:13;11.96;83.20
71177;DHT22;58877;51.992;4.504;2022-12-29T00:25:57;11.93;83.29
71177;DHT22;58877;51.992;4.504;2022-12-29T00:28:41;11.90;83.26
71177;DHT22;58877;51.992;4.504;2022-12-29T00:31:25;12.03;83.21
71177;DHT22;58877;51.992;4.504;2022-12-29T00:34:11;12.01;83.13
71177;DHT22;58877;51.992;4.504;2022-12-29T00:36:56;11.99;83.53
71177;DHT22;58877;51.992;4.504;2022-12-29T00:39:22;11.96;83.75
71177;DHT22;58877;51.992;4.504;2022-12-29T00:42:08;11.91;84.11
71177;DHT22;58877;51.992;4.504;2022-12-29T00:44:55;11.87;84.42
71177;DHT22;58877;51.992;4.504;2022-12-29T00:47:21;11.86;84.97
71177;DHT22;58877;51.992;4.504;2022-12-29T00:49:47;11.82;84.95
71177;DHT22;58877;51.992;4.504;2022-12-29T00:52:13;11.83;85.20
71177;DHT22;58877;51.992;4.504;2022-12-29T00:54:40;11.73;85.93
71177;DHT22;58877;51.992;4.504;2022-12-29T00:57:09;11.67;86.25
71177;DHT22;58877;51.992;4.504;2022-12-29T00:59:36;11.62;86.38
71177;DHT22;58877;51.992;4.504;2022-12-29T01:02:03;11.62;86.57
71177;DHT22;58877;51.992;4.504;2022-12-29T01:04:28;11.48;87.08
71177;DHT22;58877;51.992;4.504;2022-12-29T01:06:54;11.59;86.90
71177;DHT22;58877;51.992;4.504;2022-12-29T01:09:20;11.55;87.37
71177;DHT22;58877;51.992;4.504;2022-12-29T01:12:06;11.54;87.87
71177;DHT22;58877;51.992;4.504;2022-12-29T01:14:32;11.51;87.94
71177;DHT22;58877;51.992;4.504;2022-12-29T01:16:58;11.43;88.15
71177;DHT22;58877;51.992;4.504;2022-12-29T01:19:24;11.51;87.96
71177;DHT22;58877;51.992;4.504;2022-12-29T01:21:51;11.51;87.71
71177;DHT22;58877;51.992;4.504;2022-12-29T01:24:18;11.56;87.30
71177;DHT22;58877;51.992;4.504;2022-12-29T01:26:45;11.56;87.25
71177;DHT22;58877;51.992;4.504;2022-12-29T01:29:11;11.61;87.17
71177;DHT22;58877;51.992;4.504;2022-12-29T01:31:40;11.66;87.00
71177;DHT22;58877;51.992;4.504;2022-12-29T01:34:06;11.69;86.85
71177;DHT22;58877;51.992;4.504;2022-12-29T01:36:33;11.58;87.01
71177;DHT22;58877;51.992;4.504;2022-12-29T01:38:58;11.63;86.98
71177;DHT22;58877;51.992;4.504;2022-12-29T01:41:25;11.65;86.65
71177;DHT22;58877;51.992;4.504;2022-12-29T01:43:53;11.58;86.67
71177;DHT22;58877;51.992;4.504;2022-12-29T01:51:42;11.58;85.77
71177;DHT22;58877;51.992;4.504;2022-12-29T01:54:28;11.62;85.23
71177;DHT22;58877;51.992;4.504;2022-12-29T01:57:01;11.61;84.95
71177;DHT22;58877;51.992;4.504;2022-12-29T01:59:32;11.69;84.52
71177;DHT22;58877;51.992;4.504;2022-12-29T02:02:00;11.66;84.35
71177;DHT22;58877;51.992;4.504;2022-12-29T02:04:29;11.61;84.22
71177;DHT22;58877;51.992;4.504;2022-12-29T02:07:01;11.65;83.77
71177;DHT22;58877;51.992;4.504;2022-12-29T02:09:29;11.62;83.55
71177;DHT22;58877;51.992;4.504;2022-12-29T02:11:57;11.59;83.26
71177;DHT22;58877;51.992;4.504;2022-12-29T02:14:23;11.67;82.84
71177;DHT22;58877;51.992;4.504;2022-12-29T02:28:22;11.75;81.86
71177;DHT22;58877;51.992;4.504;2022-12-29T02:33:49;11.72;82.06
71177;DHT22;58877;51.992;4.504;2022-12-29T02:36:37;11.70;81.66
71177;DHT22;58877;51.992;4.504;2022-12-29T02:50:37;11.62;80.01
71177;DHT22;58877;51.992;4.504;2022-12-29T02:53:11;11.54;80.04
71177;DHT22;58877;51.992;4.504;2022-12-29T02:55:39;11.52;79.59
71177;DHT22;58877;51.992;4.504;2022-12-29T02:58:22;11.49;79.79
71177;DHT22;58877;51.992;4.504;2022-12-29T03:03:46;11.42;79.47
71177;DHT22;58877;51.992;4.504;2022-12-29T03:11:54;11.49;79.41
71177;DHT22;58877;51.992;4.504;2022-12-29T03:14:49;11.46;79.59
71177;DHT22;58877;51.992;4.504;2022-12-29T03:18:06;11.58;79.38
71177;DHT22;58877;51.992;4.504;2022-12-29T03:20:41;11.56;79.51
71177;DHT22;58877;51.992;4.504;2022-12-29T03:23:11;11.51;79.90
71177;DHT22;58877;51.992;4.504;2022-12-29T03:25:47;11.49;79.77
71177;DHT22;58877;51.992;4.504;2022-12-29T03:28:19;11.58;79.53
71177;DHT22;58877;51.992;4.504;2022-12-29T03:30:47;11.63;79.40
71177;DHT22;58877;51.992;4.504;2022-12-29T03:33:18;11.56;79.61
71177;DHT22;58877;51.992;4.504;2022-12-29T03:35:49;11.52;79.91
71177;DHT22;58877;51.992;4.504;2022-12-29T03:38:20;11.51;80.04
71177;DHT22;58877;51.992;4.504;2022-12-29T03:40:56;11.52;79.76
71177;DHT22;58877;51.992;4.504;2022-12-29T03:43:25;11.55;79.65
71177;DHT22;58877;51.992;4.504;2022-12-29T03:45:51;11.54;79.98
71177;DHT22;58877;51.992;4.504;2022-12-29T03:48:16;11.49;80.01
71177;DHT22;58877;51.992;4.504;2022-12-29T03:50:42;11.49;80.12
71177;DHT22;58877;51.992;4.504;2022-12-29T03:53:08;11.39;80.14
71177;DHT22;58877;51.992;4.504;2022-12-29T03:55:33;11.32;80.24
71177;DHT22;58877;51.992;4.504;2022-12-29T03:57:59;11.32;80.06
71177;DHT22;58877;51.992;4.504;2022-12-29T04:00:25;11.31;79.80
71177;DHT22;58877;51.992;4.504;2022-12-29T04:02:51;11.26;79.20
71177;DHT22;58877;51.992;4.504;2022-12-29T04:05:17;11.22;78.32
71177;DHT22;58877;51.992;4.504;2022-12-29T04:07:43;11.25;78.50
71177;DHT22;58877;51.992;4.504;2022-12-29T04:10:08;11.18;78.51
71177;DHT22;58877;51.992;4.504;2022-12-29T04:12:34;11.18;78.84
71177;DHT22;58877;51.992;4.504;2022-12-29T04:14:59;11.15;78.65
71177;DHT22;58877;51.992;4.504;2022-12-29T04:17:25;11.12;79.20
71177;DHT22;58877;51.992;4.504;2022-12-29T04:19:50;11.11;79.38
71177;DHT22;58877;51.992;4.504;2022-12-29T04:22:16;10.97;79.98
71177;DHT22;58877;51.992;4.504;2022-12-29T04:24:42;10.87;80.39
71177;DHT22;58877;51.992;4.504;2022-12-29T04:27:07;10.81;80.80
71177;DHT22;58877;51.992;4.504;2022-12-29T04:29:33;10.77;81.11
71177;DHT22;58877;51.992;4.504;2022-12-29T04:31:59;10.82;81.11
71177;DHT22;58877;51.992;4.504;2022-12-29T04:34:24;10.85;81.28
71177;DHT22;58877;51.992;4.504;2022-12-29T04:36:50;10.75;81.58
71177;DHT22;58877;51.992;4.504;2022-12-29T04:39:15;10.77;82.11
71177;DHT22;58877;51.992;4.504;2022-12-29T04:41:41;10.80;82.21
71177;DHT22;58877;51.992;4.504;2022-12-29T04:44:07;10.91;82.18
71177;DHT22;58877;51.992;4.504;2022-12-29T04:46:32;10.92;81.93
71177;DHT22;58877;51.992;4.504;2022-12-29T04:48:58;11.01;81.64
71177;DHT22;58877;51.992;4.504;2022-12-29T04:51:26;10.95;81.70
71177;DHT22;58877;51.992;4.504;2022-12-29T04:53:51;10.94;81.63
71177;DHT22;58877;51.992;4.504;2022-12-29T04:56:17;10.88;82.49
71177;DHT22;58877;51.992;4.504;2022-12-29T04:58:42;10.81;83.32
71177;DHT22;58877;51.992;4.504;2022-12-29T05:01:08;10.82;83.57
71177;DHT22;58877;51.992;4.504;2022-12-29T05:03:33;10.78;83.88
71177;DHT22;58877;51.992;4.504;2022-12-29T05:05:59;10.74;84.45
71177;DHT22;58877;51.992;4.504;2022-12-29T05:08:25;10.68;84.70
71177;DHT22;58877;51.992;4.504;2022-12-29T05:10:51;10.51;85.08
71177;DHT22;58877;51.992;4.504;2022-12-29T05:13:17;10.49;85.41
71177;DHT22;58877;51.992;4.504;2022-12-29T05:15:51;10.56;85.20
71177;DHT22;58877;51.992;4.504;2022-12-29T05:18:17;10.61;85.51
71177;DHT22;58877;51.992;4.504;2022-12-29T05:20:44;10.50;85.16
71177;DHT22;58877;51.992;4.504;2022-12-29T05:23:10;10.60;84.74
71177;DHT22;58877;51.992;4.504;2022-12-29T05:25:36;10.56;84.86
71177;DHT22;58877;51.992;4.504;2022-12-29T05:28:01;10.44;84.64
71177;DHT22;58877;51.992;4.504;2022-12-29T05:30:27;10.50;84.73
71177;DHT22;58877;51.992;4.504;2022-12-29T05:32:52;10.50;84.39
71177;DHT22;58877;51.992;4.504;2022-12-29T05:35:18;10.47;84.33
71177;DHT22;58877;51.992;4.504;2022-12-29T05:37:43;10.53;83.95
71177;DHT22;58877;51.992;4.504;2022-12-29T05:40:09;10.51;83.96
71177;DHT22;58877;51.992;4.504;2022-12-29T05:42:36;10.56;83.81
71177;DHT22;58877;51.992;4.504;2022-12-29T05:45:02;10.53;84.10
71177;DHT22;58877;51.992;4.504;2022-12-29T05:47:28;10.54;83.84
71177;DHT22;58877;51.992;4.504;2022-12-29T05:49:54;10.54;84.10
71177;DHT22;58877;51.992;4.504;2022-12-29T05:52:19;10.44;84.52
71177;DHT22;58877;51.992;4.504;2022-12-29T05:54:45;10.44;84.86
71177;DHT22;58877;51.992;4.504;2022-12-29T05:57:11;10.30;85.48
71177;DHT22;58877;51.992;4.504;2022-12-29T05:59:36;10.32;85.95
71177;DHT22;58877;51.992;4.504;2022-12-29T06:02:02;10.27;86.13
71177;DHT22;58877;51.992;4.504;2022-12-29T06:04:27;10.13;86.09
71177;DHT22;58877;51.992;4.504;2022-12-29T06:06:53;10.26;85.70
71177;DHT22;58877;51.992;4.504;2022-12-29T06:09:19;10.23;85.19
71177;DHT22;58877;51.992;4.504;2022-12-29T06:11:44;10.19;84.63
71177;DHT22;58877;51.992;4.504;2022-12-29T06:14:10;10.24;84.32
71177;DHT22;58877;51.992;4.504;2022-12-29T06:16:36;10.29;84.04
71177;DHT22;58877;51.992;4.504;2022-12-29T06:19:01;10.29;83.74
71177;DHT22;58877;51.992;4.504;2022-12-29T06:21:27;10.27;83.09
71177;DHT22;58877;51.992;4.504;2022-12-29T06:23:53;10.36;82.92
71177;DHT22;58877;51.992;4.504;2022-12-29T06:26:19;10.26;82.63
71177;DHT22;58877;51.992;4.504;2022-12-29T06:28:44;10.32;81.89
71177;DHT22;58877;51.992;4.504;2022-12-29T06:31:10;10.32;80.87
71177;DHT22;58877;51.992;4.504;2022-12-29T06:33:37;10.29;80.48
71177;DHT22;58877;51.992;4.504;2022-12-29T06:36:03;10.26;79.76
71177;DHT22;58877;51.992;4.504;2022-12-29T06:38:28;10.29;80.11
71177;DHT22;58877;51.992;4.504;2022-12-29T06:40:54;10.20;80.39
71177;DHT22;58877;51.992;4.504;2022-12-29T06:43:20;10.10;80.55
71177;DHT22;58877;51.992;4.504;2022-12-29T06:45:45;10.05;80.69
71177;DHT22;58877;51.992;4.504;2022-12-29T06:48:11;10.09;80.72
71177;DHT22;58877;51.992;4.504;2022-12-29T06:50:36;10.14;80.44
71177;DHT22;58877;51.992;4.504;2022-12-29T06:53:03;10.10;80.15
71177;DHT22;58877;51.992;4.504;2022-12-29T06:55:29;10.14;80.05
71177;DHT22;58877;51.992;4.504;2022-12-29T06:57:56;10.13;80.17
71177;DHT22;58877;51.992;4.504;2022-12-29T07:00:22;10.17;79.92
71177;DHT22;58877;51.992;4.504;2022-12-29T07:02:47;10.21;79.80
71177;DHT22;58877;51.992;4.504;2022-12-29T07:05:13;10.20;80.03
71177;DHT22;58877;51.992;4.504;2022-12-29T07:07:39;10.23;80.15
71177;DHT22;58877;51.992;4.504;2022-12-29T07:10:05;10.26;80.15
71177;DHT22;58877;51.992;4.504;2022-12-29T07:12:31;10.19;80.36
71177;DHT22;58877;51.992;4.504;2022-12-29T07:14:56;10.23;80.64
71177;DHT22;58877;51.992;4.504;2022-12-29T07:17:22;10.23;80.60
71177;DHT22;58877;51.992;4.504;2022-12-29T07:19:47;10.27;80.69
71177;DHT22;58877;51.992;4.504;2022-12-29T07:22:13;10.29;80.70
71177;DHT22;58877;51.992;4.504;2022-12-29T07:24:38;10.29;80.90
71177;DHT22;58877;51.992;4.504;2022-12-29T07:27:04;10.23;81.12
71177;DHT22;58877;51.992;4.504;2022-12-29T07:29:30;10.26;80.96
71177;DHT22;58877;51.992;4.504;2022-12-29T07:31:56;10.32;80.78
71177;DHT22;58877;51.992;4.504;2022-12-29T07:34:21;10.33;80.74
71177;DHT22;58877;51.992;4.504;2022-12-29T07:36:47;10.34;80.59
71177;DHT22;58877;51.992;4.504;2022-12-29T07:39:12;10.43;79.80
71177;DHT22;58877;51.992;4.504;2022-12-29T07:41:38;10.47;79.47
71177;DHT22;58877;51.992;4.504;2022-12-29T07:44:05;10.46;79.07
71177;DHT22;58877;51.992;4.504;2022-12-29T07:46:31;10.54;78.97
71177;DHT22;58877;51.992;4.504;2022-12-29T07:48:57;10.51;78.52
71177;DHT22;58877;51.992;4.504;2022-12-29T07:51:23;10.64;78.27
71177;DHT22;58877;51.992;4.504;2022-12-29T07:53:49;10.65;77.96
71177;DHT22;58877;51.992;4.504;2022-12-29T07:56:14;10.64;77.90
71177;DHT22;58877;51.992;4.504;2022-12-29T07:58:45;10.67;78.06
71177;DHT22;58877;51.992;4.504;2022-12-29T08:01:11;10.65;78.07
71177;DHT22;58877;51.992;4.504;2022-12-29T08:03:37;10.64;77.96
71177;DHT22;58877;51.992;4.504;2022-12-29T08:06:03;10.59;78.07
71177;DHT22;58877;51.992;4.504;2022-12-29T08:08:29;10.60;78.34
71177;DHT22;58877;51.992;4.504;2022-12-29T08:10:54;10.59;78.89
71177;DHT22;58877;51.992;4.504;2022-12-29T08:13:20;10.50;79.40
71177;DHT22;58877;51.992;4.504;2022-12-29T08:15:45;10.50;79.48
71177;DHT22;58877;51.992;4.504;2022-12-29T08:18:11;10.49;79.21
71177;DHT22;58877;51.992;4.504;2022-12-29T08:20:39;10.44;79.44
71177;DHT22;58877;51.992;4.504;2022-12-29T08:23:06;10.43;79.97
71177;DHT22;58877;51.992;4.504;2022-12-29T08:25:31;10.41;80.09
71177;DHT22;58877;51.992;4.504;2022-12-29T08:27:57;10.40;80.45
71177;DHT22;58877;51.992;4.504;2022-12-29T08:30:23;10.39;80.62
71177;DHT22;58877;51.992;4.504;2022-12-29T08:32:48;10.30;80.84
71177;DHT22;58877;51.992;4.504;2022-12-29T08:35:14;10.39;80.90
71177;DHT22;58877;51.992;4.504;2022-12-29T08:37:40;10.39;80.75
71177;DHT22;58877;51.992;4.504;2022-12-29T08:40:06;10.27;81.39
71177;DHT22;58877;51.992;4.504;2022-12-29T08:42:32;10.29;82.16
71177;DHT22;58877;51.992;4.504;2022-12-29T08:44:59;10.19;83.24
71177;DHT22;58877;51.992;4.504;2022-12-29T08:47:26;10.14;83.71
71177;DHT22;58877;51.992;4.504;2022-12-29T08:49:52;10.13;84.27
71177;DHT22;58877;51.992;4.504;2022-12-29T08:52:18;10.03;85.15
71177;DHT22;58877;51.992;4.504;2022-12-29T08:54:45;10.02;85.76
71177;DHT22;58877;51.992;4.504;2022-12-29T08:57:11;9.85;86.22
71177;DHT22;58877;51.992;4.504;2022-12-29T08:59:38;9.82;86.47
71177;DHT22;58877;51.992;4.504;2022-12-29T09:02:04;9.82;86.67
71177;DHT22;58877;51.992;4.504;2022-12-29T09:04:30;9.81;86.47
71177;DHT22;58877;51.992;4.504;2022-12-29T09:06:57;9.78;86.87
71177;DHT22;58877;51.992;4.504;2022-12-29T09:09:26;9.68;87.44
71177;DHT22;58877;51.992;4.504;2022-12-29T09:11:52;9.63;87.55
71177;DHT22;58877;51.992;4.504;2022-12-29T09:14:18;9.71;87.65
71177;DHT22;58877;51.992;4.504;2022-12-29T09:16:44;9.83;87.23
71177;DHT22;58877;51.992;4.504;2022-12-29T09:19:34;9.86;87.15
71177;DHT22;58877;51.992;4.504;2022-12-29T09:22:03;9.87;87.21
71177;DHT22;58877;51.992;4.504;2022-12-29T09:24:34;9.92;87.21
71177;DHT22;58877;51.992;4.504;2022-12-29T09:27:21;10.00;87.18
71177;DHT22;58877;51.992;4.504;2022-12-29T09:29:53;10.00;87.05
71177;DHT22;58877;51.992;4.504;2022-12-29T09:32:25;9.95;87.38
71177;DHT22;58877;51.992;4.504;2022-12-29T09:34:54;9.97;87.60
71177;DHT22;58877;51.992;4.504;2022-12-29T09:37:25;9.92;87.58
71177;DHT22;58877;51.992;4.504;2022-12-29T09:39:51;10.02;87.29
71177;DHT22;58877;51.992;4.504;2022-12-29T09:45:43;10.07;87.39
71177;DHT22;58877;51.992;4.504;2022-12-29T09:48:20;10.16;87.02
71177;DHT22;58877;51.992;4.504;2022-12-29T09:50:56;10.21;86.68
71177;DHT22;58877;51.992;4.504;2022-12-29T09:53:42;10.20;86.83
71177;DHT22;58877;51.992;4.504;2022-12-29T09:56:17;10.20;86.71
71177;DHT22;58877;51.992;4.504;2022-12-29T09:59:19;10.26;86.50
71177;DHT22;58877;51.992;4.504;2022-12-29T10:09:23;10.43;86.02
71177;DHT22;58877;51.992;4.504;2022-12-29T10:19:32;10.50;86.10
71177;DHT22;58877;51.992;4.504;2022-12-29T10:22:24;10.46;85.94
71177;DHT22;58877;51.992;4.504;2022-12-29T10:24:55;10.64;85.78
71177;DHT22;58877;51.992;4.504;2022-12-29T10:27:32;10.60;85.52
71177;DHT22;58877;51.992;4.504;2022-12-29T10:30:02;10.56;85.50
71177;DHT22;58877;51.992;4.504;2022-12-29T10:33:01;10.53;85.60
71177;DHT22;58877;51.992;4.504;2022-12-29T10:35:26;10.56;85.24
71177;DHT22;58877;51.992;4.504;2022-12-29T10:38:14;10.57;84.72
71177;DHT22;58877;51.992;4.504;2022-12-29T10:43:42;10.78;84.51
71177;DHT22;58877;51.992;4.504;2022-12-29T10:46:18;10.84;84.12
71177;DHT22;58877;51.992;4.504;2022-12-29T10:48:45;10.94;83.81
71177;DHT22;58877;51.992;4.504;2022-12-29T10:51:30;10.90;82.92
71177;DHT22;58877;51.992;4.504;2022-12-29T10:54:25;10.84;82.61
71177;DHT22;58877;51.992;4.504;2022-12-29T10:57:01;10.90;82.59
71177;DHT22;58877;51.992;4.504;2022-12-29T10:59:31;10.85;82.99
71177;DHT22;58877;51.992;4.504;2022-12-29T11:05:00;10.98;83.11
71177;DHT22;58877;51.992;4.504;2022-12-29T11:07:30;10.97;82.22
71177;DHT22;58877;51.992;4.504;2022-12-29T11:12:55;10.90;81.54
71177;DHT22;58877;51.992;4.504;2022-12-29T11:15:21;10.75;81.55
71177;DHT22;58877;51.992;4.504;2022-12-29T11:17:49;10.71;81.60
71177;DHT22;58877;51.992;4.504;2022-12-29T11:20:37;10.67;82.05
71177;DHT22;58877;51.992;4.504;2022-12-29T11:26:16;10.64;83.09
71177;DHT22;58877;51.992;4.504;2022-12-29T11:28:45;10.72;82.53
71177;DHT22;58877;51.992;4.504;2022-12-29T11:31:16;10.70;82.76
71177;DHT22;58877;51.992;4.504;2022-12-29T11:33:41;10.64;82.84
71177;DHT22;58877;51.992;4.504;2022-12-29T11:36:11;10.63;81.04
71177;DHT22;58877;51.992;4.504;2022-12-29T11:38:53;10.71;80.95
71177;DHT22;58877;51.992;4.504;2022-12-29T11:41:27;10.70;79.43
71177;DHT22;58877;51.992;4.504;2022-12-29T11:43:57;10.81;78.88
71177;DHT22;58877;51.992;4.504;2022-12-29T11:46:29;10.92;78.70
71177;DHT22;58877;51.992;4.504;2022-12-29T11:48:56;10.85;79.26
71177;DHT22;58877;51.992;4.504;2022-12-29T11:51:51;10.88;80.21
71177;DHT22;58877;51.992;4.504;2022-12-29T11:54:27;10.72;80.97
71177;DHT22;58877;51.992;4.504;2022-12-29T11:57:23;10.80;81.53
71177;DHT22;58877;51.992;4.504;2022-12-29T12:00:00;10.90;81.52
71177;DHT22;58877;51.992;4.504;2022-12-29T12:03:04;10.84;81.56
71177;DHT22;58877;51.992;4.504;2022-12-29T12:10:54;11.10;80.26
71177;DHT22;58877;51.992;4.504;2022-12-29T12:16:17;10.95;79.71
71177;DHT22;58877;51.992;4.504;2022-12-29T12:19:36;10.97;79.79
71177;DHT22;58877;51.992;4.504;2022-12-29T12:22:16;11.05;79.42
71177;DHT22;58877;51.992;4.504;2022-12-29T12:25:03;10.94;79.03
71177;DHT22;58877;51.992;4.504;2022-12-29T12:30:22;11.04;78.07
71177;DHT22;58877;51.992;4.504;2022-12-29T12:33:06;11.02;78.24
71177;DHT22;58877;51.992;4.504;2022-12-29T12:38:53;10.95;77.56
71177;DHT22;58877;51.992;4.504;2022-12-29T12:44:41;10.92;79.32
71177;DHT22;58877;51.992;4.504;2022-12-29T12:52:57;11.00;79.86
71177;DHT22;58877;51.992;4.504;2022-12-29T13:06:34;11.02;79.49
71177;DHT22;58877;51.992;4.504;2022-12-29T13:12:12;11.12;79.24
71177;DHT22;58877;51.992;4.504;2022-12-29T13:17:44;11.15;79.05
71177;DHT22;58877;51.992;4.504;2022-12-29T13:23:07;11.14;79.47
71177;DHT22;58877;51.992;4.504;2022-12-29T13:39:23;11.08;79.37
71177;DHT22;58877;51.992;4.504;2022-12-29T13:41:54;10.81;81.34
71177;DHT22;58877;51.992;4.504;2022-12-29T13:44:41;10.65;82.77
71177;DHT22;58877;51.992;4.504;2022-12-29T13:47:39;10.51;83.59
71177;DHT22;58877;51.992;4.504;2022-12-29T13:50:22;10.27;84.42
71177;DHT22;58877;51.992;4.504;2022-12-29T13:56:14;9.90;84.95
71177;DHT22;58877;51.992;4.504;2022-12-29T13:58:54;9.79;85.23
71177;DHT22;58877;51.992;4.504;2022-12-29T14:03:59;10.07;85.37
71177;DHT22;58877;51.992;4.504;2022-12-29T14:06:30;10.10;85.18
71177;DHT22;58877;51.992;4.504;2022-12-29T14:09:28;10.12;85.06
71177;DHT22;58877;51.992;4.504;2022-12-29T14:11:52;10.26;84.76
71177;DHT22;58877;51.992;4.504;2022-12-29T14:16:47;10.27;84.65
71177;DHT22;58877;51.992;4.504;2022-12-29T14:19:38;10.36;84.54
71177;DHT22;58877;51.992;4.504;2022-12-29T14:22:07;10.36;84.06
71177;DHT22;58877;51.992;4.504;2022-12-29T14:34:48;10.50;83.37
71177;DHT22;58877;51.992;4.504;2022-12-29T14:37:40;10.51;83.21
71177;DHT22;58877;51.992;4.504;2022-12-29T14:40:25;10.53;83.25
71177;DHT22;58877;51.992;4.504;2022-12-29T14:43:01;10.53;83.23
71177;DHT22;58877;51.992;4.504;2022-12-29T14:45:31;10.51;83.31
71177;DHT22;58877;51.992;4.504;2022-12-29T14:48:27;10.44;82.68
71177;DHT22;58877;51.992;4.504;2022-12-29T14:50:55;10.47;82.66
71177;DHT22;58877;51.992;4.504;2022-12-29T14:53:47;10.43;82.46
71177;DHT22;58877;51.992;4.504;2022-12-29T14:56:17;10.47;82.58
71177;DHT22;58877;51.992;4.504;2022-12-29T14:58:54;10.44;82.40
71177;DHT22;58877;51.992;4.504;2022-12-29T15:04:05;10.39;82.37
71177;DHT22;58877;51.992;4.504;2022-12-29T15:06:36;10.39;82.75
71177;DHT22;58877;51.992;4.504;2022-12-29T15:09:27;10.37;82.69
71177;DHT22;58877;51.992;4.504;2022-12-29T15:14:52;10.20;82.96
71177;DHT22;58877;51.992;4.504;2022-12-29T15:17:30;10.17;82.94
71177;DHT22;58877;51.992;4.504;2022-12-29T15:20:03;10.16;82.92
71177;DHT22;58877;51.992;4.504;2022-12-29T15:22:47;10.10;82.65
71177;DHT22;58877;51.992;4.504;2022-12-29T15:25:16;10.03;82.64
71177;DHT22;58877;51.992;4.504;2022-12-29T15:27:49;10.06;82.57
71177;DHT22;58877;51.992;4.504;2022-12-29T15:30:15;10.12;82.22
71177;DHT22;58877;51.992;4.504;2022-12-29T15:32:47;10.06;82.25
71177;DHT22;58877;51.992;4.504;2022-12-29T15:35:35;10.07;82.22
71177;DHT22;58877;51.992;4.504;2022-12-29T15:38:19;9.97;82.24
71177;DHT22;58877;51.992;4.504;2022-12-29T15:40:46;10.05;81.84
71177;DHT22;58877;51.992;4.504;2022-12-29T15:46:02;9.97;81.61
71177;DHT22;58877;51.992;4.504;2022-12-29T15:48:29;9.92;81.59
71177;DHT22;58877;51.992;4.504;2022-12-29T15:50:55;9.83;81.43
71177;DHT22;58877;51.992;4.504;2022-12-29T15:53:28;9.78;81.56
71177;DHT22;58877;51.992;4.504;2022-12-29T15:56:07;9.76;81.37
71177;DHT22;58877;51.992;4.504;2022-12-29T15:58:47;9.74;81.48
71177;DHT22;58877;51.992;4.504;2022-12-29T16:01:28;9.68;81.30
71177;DHT22;58877;51.992;4.504;2022-12-29T16:03:57;9.62;81.38
71177;DHT22;58877;51.992;4.504;2022-12-29T16:06:44;9.63;81.39
71177;DHT22;58877;51.992;4.504;2022-12-29T16:09:17;9.61;81.19
71177;DHT22;58877;51.992;4.504;2022-12-29T16:12:19;9.56;81.03
71177;DHT22;58877;51.992;4.504;2022-12-29T16:14:54;9.56;80.86
71177;DHT22;58877;51.992;4.504;2022-12-29T16:17:29;9.51;80.98
71177;DHT22;58877;51.992;4.504;2022-12-29T16:20:02;9.52;80.67
71177;DHT22;58877;51.992;4.504;2022-12-29T16:22:33;9.59;80.66
71177;DHT22;58877;51.992;4.504;2022-12-29T16:25:22;9.58;80.39
71177;DHT22;58877;51.992;4.504;2022-12-29T16:27:49;9.62;80.38
71177;DHT22;58877;51.992;4.504;2022-12-29T16:30:28;9.61;80.37
71177;DHT22;58877;51.992;4.504;2022-12-29T16:33:04;9.63;80.01
71177;DHT22;58877;51.992;4.504;2022-12-29T16:35:46;9.58;80.14
71177;DHT22;58877;51.992;4.504;2022-12-29T16:38:22;9.52;80.35
71177;DHT22;58877;51.992;4.504;2022-12-29T16:40:59;9.52;80.56
71177;DHT22;58877;51.992;4.504;2022-12-29T16:43:30;9.51;80.55
71177;DHT22;58877;51.992;4.504;2022-12-29T16:48:28;9.49;80.35
71177;DHT22;58877;51.992;4.504;2022-12-29T16:51:36;9.41;80.17
71177;DHT22;58877;51.992;4.504;2022-12-29T16:54:03;9.34;80.48
71177;DHT22;58877;51.992;4.504;2022-12-29T16:56:33;9.34;80.44
71177;DHT22;58877;51.992;4.504;2022-12-29T16:59:08;9.28;80.46
71177;DHT22;58877;51.992;4.504;2022-12-29T17:01:41;9.28;80.47
71177;DHT22;58877;51.992;4.504;2022-12-29T17:04:10;9.32;80.16
71177;DHT22;58877;51.992;4.504;2022-12-29T17:06:36;9.14;80.23
71177;DHT22;58877;51.992;4.504;2022-12-29T17:09:30;9.21;80.26
71177;DHT22;58877;51.992;4.504;2022-12-29T17:12:01;9.25;79.94
71177;DHT22;58877;51.992;4.504;2022-12-29T17:14:47;9.18;79.86
71177;DHT22;58877;51.992;4.504;2022-12-29T17:19:49;9.11;79.23
71177;DHT22;58877;51.992;4.504;2022-12-29T17:22:21;9.11;79.43
71177;DHT22;58877;51.992;4.504;2022-12-29T17:24:49;9.12;79.27
71177;DHT22;58877;51.992;4.504;2022-12-29T17:27:23;9.10;79.24
71177;DHT22;58877;51.992;4.504;2022-12-29T17:29:51;9.14;79.37
71177;DHT22;58877;51.992;4.504;2022-12-29T17:32:18;9.08;79.41
71177;DHT22;58877;51.992;4.504;2022-12-29T17:34:43;9.07;79.64
71177;DHT22;58877;51.992;4.504;2022-12-29T17:37:32;9.05;79.59
71177;DHT22;58877;51.992;4.504;2022-12-29T17:39:59;8.96;79.85
71177;DHT22;58877;51.992;4.504;2022-12-29T17:42:25;8.90;80.16
71177;DHT22;58877;51.992;4.504;2022-12-29T17:44:51;8.88;80.05
71177;DHT22;58877;51.992;4.504;2022-12-29T17:47:17;8.92;80.02
71177;DHT22;58877;51.992;4.504;2022-12-29T17:49:42;8.92;79.85
71177;DHT22;58877;51.992;4.504;2022-12-29T17:52:13;8.96;79.82
71177;DHT22;58877;51.992;4.504;2022-12-29T17:54:51;8.99;79.90
71177;DHT22;58877;51.992;4.504;2022-12-29T17:57:19;8.92;79.97
71177;DHT22;58877;51.992;4.504;2022-12-29T17:59:44;8.87;80.23
71177;DHT22;58877;51.992;4.504;2022-12-29T18:04:51;8.77;80.74
71177;DHT22;58877;51.992;4.504;2022-12-29T18:07:16;8.79;80.75
71177;DHT22;58877;51.992;4.504;2022-12-29T18:09:42;8.77;80.82
71177;DHT22;58877;51.992;4.504;2022-12-29T18:12:30;8.83;80.63
71177;DHT22;58877;51.992;4.504;2022-12-29T18:14:57;8.85;80.58
71177;DHT22;58877;51.992;4.504;2022-12-29T18:17:23;8.80;80.80
71177;DHT22;58877;51.992;4.504;2022-12-29T18:19:49;8.74;80.94
71177;DHT22;58877;51.992;4.504;2022-12-29T18:22:16;8.81;80.70
71177;DHT22;58877;51.992;4.504;2022-12-29T18:24:42;8.81;80.78
71177;DHT22;58877;51.992;4.504;2022-12-29T18:27:13;8.81;80.82
71177;DHT22;58877;51.992;4.504;2022-12-29T18:29:40;8.77;80.81
71177;DHT22;58877;51.992;4.504;2022-12-29T18:32:10;8.83;80.74
71177;DHT22;58877;51.992;4.504;2022-12-29T18:34:36;8.85;80.75
71177;DHT22;58877;51.992;4.504;2022-12-29T18:37:01;8.84;80.72
71177;DHT22;58877;51.992;4.504;2022-12-29T18:39:27;8.85;80.71
71177;DHT22;58877;51.992;4.504;2022-12-29T18:41:53;8.85;80.63